sensor_id;sensor_type;location;lat;lon;timestamp;P1;durP1;ratioP1;P2;durP2;ratioP2
8777;SDS011;4425;50.872;4.712;2023-02-28T00:00:25;9.05;;;6.68;;
8777;SDS011;4425;50.872;4.712;2023-02-28T00:02:56;8.93;;;6.60;;
8777;SDS011;4425;50.872;4.712;2023-02-28T00:05:26;9.15;;;6.50;;
8777;SDS011;4425;50.872;4.712;2023-02-28T00:07:56;8.40;;;6.70;;
8777;SDS011;4425;50.872;4.712;2023-02-28T00:10:23;8.32;;;6.70;;
8777;SDS011;4425;50.872;4.712;2023-02-28T00:12:55;9.48;;;6.53;;
8777;SDS011;4425;50.872;4.712;2023-02-28T00:15:30;10.82;;;6.95;;
8777;SDS011;4425;50.872;4.712;2023-02-28T00:17:59;8.10;;;6.63;;
8777;SDS011;4425;50.872;4.712;2023-02-28T00:23:34;9.18;;;6.38;;
8777;SDS011;4425;50.872;4.712;2023-02-28T00:26:17;7.65;;;6.35;;
8777;SDS011;4425;50.872;4.712;2023-02-28T00:29:03;9.27;;;6.60;;
8777;SDS011;4425;50.872;4.712;2023-02-28T00:34:35;9.43;;;6.35;;
8777;SDS011;4425;50.872;4.712;2023-02-28T00:37:05;8.83;;;6.20;;
8777;SDS011;4425;50.872;4.712;2023-02-28T00:39:37;9.18;;;6.63;;
8777;SDS011;4425;50.872;4.712;2023-02-28T00:42:07;10.25;;;6.72;;
8777;SDS011;4425;50.872;4.712;2023-02-28T00:44:44;8.90;;;6.40;;
8777;SDS011;4425;50.872;4.712;2023-02-28T00:47:13;8.50;;;6.43;;
8777;SDS011;4425;50.872;4.712;2023-02-28T00:49:53;8.43;;;6.40;;
8777;SDS011;4425;50.872;4.712;2023-02-28T00:55:28;7.93;;;6.22;;
8777;SDS011;4425;50.872;4.712;2023-02-28T00:58:07;8.95;;;6.55;;
8777;SDS011;4425;50.872;4.712;2023-02-28T01:00:38;6.65;;;5.93;;
8777;SDS011;4425;50.872;4.712;2023-02-28T01:03:07;6.85;;;6.15;;
8777;SDS011;4425;50.872;4.712;2023-02-28T01:05:34;7.15;;;6.20;;
8777;SDS011;4425;50.872;4.712;2023-02-28T01:10:34;7.90;;;6.30;;
8777;SDS011;4425;50.872;4.712;2023-02-28T01:13:06;8.32;;;6.38;;
8777;SDS011;4425;50.872;4.712;2023-02-28T01:15:35;7.25;;;6.35;;
8777;SDS011;4425;50.872;4.712;2023-02-28T01:18:18;8.05;;;6.32;;
8777;SDS011;4425;50.872;4.712;2023-02-28T01:20:48;8.70;;;6.68;;
8777;SDS011;4425;50.872;4.712;2023-02-28T01:23:18;9.07;;;6.40;;
8777;SDS011;4425;50.872;4.712;2023-02-28T01:25:46;9.05;;;6.40;;
8777;SDS011;4425;50.872;4.712;2023-02-28T01:28:15;7.73;;;6.47;;
8777;SDS011;4425;50.872;4.712;2023-02-28T01:30:47;10.18;;;6.95;;
8777;SDS011;4425;50.872;4.712;2023-02-28T01:33:17;9.95;;;6.70;;
8777;SDS011;4425;50.872;4.712;2023-02-28T01:35:48;9.05;;;6.88;;
8777;SDS011;4425;50.872;4.712;2023-02-28T01:38:16;8.15;;;6.57;;
8777;SDS011;4425;50.872;4.712;2023-02-28T01:40:44;7.20;;;6.47;;
8777;SDS011;4425;50.872;4.712;2023-02-28T01:43:16;8.05;;;6.35;;
8777;SDS011;4425;50.872;4.712;2023-02-28T01:45:48;8.10;;;6.65;;
8777;SDS011;4425;50.872;4.712;2023-02-28T01:48:16;9.60;;;6.93;;
8777;SDS011;4425;50.872;4.712;2023-02-28T01:50:46;8.43;;;6.80;;
8777;SDS011;4425;50.872;4.712;2023-02-28T01:53:15;8.40;;;6.97;;
8777;SDS011;4425;50.872;4.712;2023-02-28T01:55:51;8.52;;;6.63;;
8777;SDS011;4425;50.872;4.712;2023-02-28T01:58:21;7.43;;;6.65;;
8777;SDS011;4425;50.872;4.712;2023-02-28T02:00:49;9.25;;;6.95;;
8777;SDS011;4425;50.872;4.712;2023-02-28T02:03:20;9.75;;;7.20;;
8777;SDS011;4425;50.872;4.712;2023-02-28T02:06:02;8.13;;;6.87;;
8777;SDS011;4425;50.872;4.712;2023-02-28T02:08:30;7.25;;;6.47;;
8777;SDS011;4425;50.872;4.712;2023-02-28T02:11:13;9.27;;;6.75;;
8777;SDS011;4425;50.872;4.712;2023-02-28T02:14:18;9.18;;;6.50;;
8777;SDS011;4425;50.872;4.712;2023-02-28T02:17:06;9.25;;;6.75;;
8777;SDS011;4425;50.872;4.712;2023-02-28T02:25:55;8.00;;;6.82;;
8777;SDS011;4425;50.872;4.712;2023-02-28T02:34:54;10.00;;;7.30;;
8777;SDS011;4425;50.872;4.712;2023-02-28T02:37:29;10.85;;;7.55;;
8777;SDS011;4425;50.872;4.712;2023-02-28T02:40:16;8.07;;;7.18;;
8777;SDS011;4425;50.872;4.712;2023-02-28T02:42:49;9.50;;;8.00;;
8777;SDS011;4425;50.872;4.712;2023-02-28T02:45:24;11.30;;;8.07;;
8777;SDS011;4425;50.872;4.712;2023-02-28T02:48:05;8.23;;;7.20;;
8777;SDS011;4425;50.872;4.712;2023-02-28T02:50:54;10.17;;;7.57;;
8777;SDS011;4425;50.872;4.712;2023-02-28T02:53:24;8.32;;;7.45;;
8777;SDS011;4425;50.872;4.712;2023-02-28T02:56:01;10.00;;;7.65;;
8777;SDS011;4425;50.872;4.712;2023-02-28T02:58:33;10.18;;;7.70;;
8777;SDS011;4425;50.872;4.712;2023-02-28T03:01:07;9.88;;;8.10;;
8777;SDS011;4425;50.872;4.712;2023-02-28T03:03:39;10.35;;;8.15;;
8777;SDS011;4425;50.872;4.712;2023-02-28T03:06:11;9.02;;;8.10;;
8777;SDS011;4425;50.872;4.712;2023-02-28T03:08:40;9.65;;;8.30;;
8777;SDS011;4425;50.872;4.712;2023-02-28T03:11:11;11.13;;;8.80;;
8777;SDS011;4425;50.872;4.712;2023-02-28T03:13:55;10.93;;;8.48;;
8777;SDS011;4425;50.872;4.712;2023-02-28T03:16:46;10.38;;;8.27;;
8777;SDS011;4425;50.872;4.712;2023-02-28T03:19:45;11.32;;;8.48;;
8777;SDS011;4425;50.872;4.712;2023-02-28T03:28:05;10.02;;;8.90;;
8777;SDS011;4425;50.872;4.712;2023-02-28T03:30:45;13.80;;;9.13;;
8777;SDS011;4425;50.872;4.712;2023-02-28T03:33:21;11.15;;;8.77;;
8777;SDS011;4425;50.872;4.712;2023-02-28T03:35:54;9.93;;;8.93;;
8777;SDS011;4425;50.872;4.712;2023-02-28T03:38:28;10.30;;;8.97;;
8777;SDS011;4425;50.872;4.712;2023-02-28T03:41:14;11.00;;;9.40;;
8777;SDS011;4425;50.872;4.712;2023-02-28T03:43:53;11.10;;;9.23;;
8777;SDS011;4425;50.872;4.712;2023-02-28T03:46:23;12.57;;;9.50;;
8777;SDS011;4425;50.872;4.712;2023-02-28T03:49:00;13.23;;;9.50;;
8777;SDS011;4425;50.872;4.712;2023-02-28T03:51:32;12.30;;;9.25;;
8777;SDS011;4425;50.872;4.712;2023-02-28T03:54:02;13.80;;;9.55;;
8777;SDS011;4425;50.872;4.712;2023-02-28T03:56:37;11.98;;;9.50;;
8777;SDS011;4425;50.872;4.712;2023-02-28T03:59:13;12.70;;;9.73;;
8777;SDS011;4425;50.872;4.712;2023-02-28T04:02:12;12.50;;;9.23;;
8777;SDS011;4425;50.872;4.712;2023-02-28T04:04:43;14.75;;;10.52;;
8777;SDS011;4425;50.872;4.712;2023-02-28T04:07:13;11.10;;;9.95;;
8777;SDS011;4425;50.872;4.712;2023-02-28T04:09:43;12.32;;;9.77;;
8777;SDS011;4425;50.872;4.712;2023-02-28T04:12:14;12.77;;;9.95;;
8777;SDS011;4425;50.872;4.712;2023-02-28T04:14:44;11.98;;;10.70;;
8777;SDS011;4425;50.872;4.712;2023-02-28T04:17:12;13.05;;;10.80;;
8777;SDS011;4425;50.872;4.712;2023-02-28T04:19:39;12.23;;;10.43;;
8777;SDS011;4425;50.872;4.712;2023-02-28T04:22:09;13.40;;;10.38;;
8777;SDS011;4425;50.872;4.712;2023-02-28T04:24:36;12.57;;;10.10;;
8777;SDS011;4425;50.872;4.712;2023-02-28T04:27:08;13.98;;;10.63;;
8777;SDS011;4425;50.872;4.712;2023-02-28T04:29:54;14.70;;;10.63;;
8777;SDS011;4425;50.872;4.712;2023-02-28T04:32:35;13.37;;;10.50;;
8777;SDS011;4425;50.872;4.712;2023-02-28T04:35:04;13.65;;;10.57;;
8777;SDS011;4425;50.872;4.712;2023-02-28T04:37:32;12.30;;;10.40;;
8777;SDS011;4425;50.872;4.712;2023-02-28T04:40:04;14.45;;;10.60;;
8777;SDS011;4425;50.872;4.712;2023-02-28T04:42:35;13.27;;;10.85;;
8777;SDS011;4425;50.872;4.712;2023-02-28T04:45:05;15.50;;;11.20;;
8777;SDS011;4425;50.872;4.712;2023-02-28T04:47:35;13.35;;;11.25;;
8777;SDS011;4425;50.872;4.712;2023-02-28T04:50:08;13.60;;;11.55;;
8777;SDS011;4425;50.872;4.712;2023-02-28T04:52:36;14.43;;;11.75;;
8777;SDS011;4425;50.872;4.712;2023-02-28T04:55:03;14.30;;;11.77;;
8777;SDS011;4425;50.872;4.712;2023-02-28T04:57:31;15.07;;;11.73;;
8777;SDS011;4425;50.872;4.712;2023-02-28T04:59:58;16.85;;;11.55;;
8777;SDS011;4425;50.872;4.712;2023-02-28T05:02:27;15.75;;;12.00;;
8777;SDS011;4425;50.872;4.712;2023-02-28T05:04:54;17.45;;;11.80;;
8777;SDS011;4425;50.872;4.712;2023-02-28T05:07:21;13.00;;;11.32;;
8777;SDS011;4425;50.872;4.712;2023-02-28T05:09:53;13.77;;;11.40;;
8777;SDS011;4425;50.872;4.712;2023-02-28T05:12:23;13.70;;;11.75;;
8777;SDS011;4425;50.872;4.712;2023-02-28T05:14:52;14.75;;;11.98;;
8777;SDS011;4425;50.872;4.712;2023-02-28T05:17:22;15.35;;;11.98;;
8777;SDS011;4425;50.872;4.712;2023-02-28T05:19:51;14.13;;;11.48;;
8777;SDS011;4425;50.872;4.712;2023-02-28T05:22:38;14.38;;;11.50;;
8777;SDS011;4425;50.872;4.712;2023-02-28T05:25:42;15.85;;;11.85;;
8777;SDS011;4425;50.872;4.712;2023-02-28T05:28:11;14.10;;;11.80;;
8777;SDS011;4425;50.872;4.712;2023-02-28T05:30:39;16.67;;;12.02;;
8777;SDS011;4425;50.872;4.712;2023-02-28T05:33:10;15.73;;;12.00;;
8777;SDS011;4425;50.872;4.712;2023-02-28T05:35:43;14.88;;;11.88;;
8777;SDS011;4425;50.872;4.712;2023-02-28T05:38:10;16.40;;;11.63;;
8777;SDS011;4425;50.872;4.712;2023-02-28T05:40:42;15.03;;;11.80;;
8777;SDS011;4425;50.872;4.712;2023-02-28T05:45:40;15.63;;;12.27;;
8777;SDS011;4425;50.872;4.712;2023-02-28T05:48:07;15.93;;;12.80;;
8777;SDS011;4425;50.872;4.712;2023-02-28T05:50:43;17.65;;;12.80;;
8777;SDS011;4425;50.872;4.712;2023-02-28T05:53:12;13.93;;;12.43;;
8777;SDS011;4425;50.872;4.712;2023-02-28T05:58:10;14.10;;;12.60;;
8777;SDS011;4425;50.872;4.712;2023-02-28T06:00:38;14.95;;;12.68;;
8777;SDS011;4425;50.872;4.712;2023-02-28T06:03:05;19.98;;;13.77;;
8777;SDS011;4425;50.872;4.712;2023-02-28T06:05:33;16.60;;;12.65;;
8777;SDS011;4425;50.872;4.712;2023-02-28T06:08:05;18.50;;;13.10;;
8777;SDS011;4425;50.872;4.712;2023-02-28T06:10:34;15.47;;;12.73;;
8777;SDS011;4425;50.872;4.712;2023-02-28T06:15:33;15.30;;;12.45;;
8777;SDS011;4425;50.872;4.712;2023-02-28T06:18:00;18.02;;;12.60;;
8777;SDS011;4425;50.872;4.712;2023-02-28T06:20:27;16.23;;;12.18;;
8777;SDS011;4425;50.872;4.712;2023-02-28T06:22:55;16.80;;;12.55;;
8777;SDS011;4425;50.872;4.712;2023-02-28T06:25:27;17.15;;;12.15;;
8777;SDS011;4425;50.872;4.712;2023-02-28T06:27:55;17.07;;;12.27;;
8777;SDS011;4425;50.872;4.712;2023-02-28T06:30:25;16.65;;;12.30;;
8777;SDS011;4425;50.872;4.712;2023-02-28T06:32:56;14.77;;;12.20;;
8777;SDS011;4425;50.872;4.712;2023-02-28T06:35:25;17.15;;;12.20;;
8777;SDS011;4425;50.872;4.712;2023-02-28T06:37:57;14.07;;;12.18;;
8777;SDS011;4425;50.872;4.712;2023-02-28T06:40:33;13.47;;;12.07;;
8777;SDS011;4425;50.872;4.712;2023-02-28T06:43:02;14.98;;;11.90;;
8777;SDS011;4425;50.872;4.712;2023-02-28T06:45:30;15.17;;;12.30;;
8777;SDS011;4425;50.872;4.712;2023-02-28T06:47:58;16.35;;;12.18;;
8777;SDS011;4425;50.872;4.712;2023-02-28T06:50:30;17.55;;;12.80;;
8777;SDS011;4425;50.872;4.712;2023-02-28T06:52:59;15.82;;;12.35;;
8777;SDS011;4425;50.872;4.712;2023-02-28T06:55:29;14.77;;;12.57;;
8777;SDS011;4425;50.872;4.712;2023-02-28T06:57:58;17.08;;;12.48;;
8777;SDS011;4425;50.872;4.712;2023-02-28T07:00:41;18.02;;;12.50;;
8777;SDS011;4425;50.872;4.712;2023-02-28T07:03:09;16.55;;;12.88;;
8777;SDS011;4425;50.872;4.712;2023-02-28T07:05:36;18.23;;;13.48;;
8777;SDS011;4425;50.872;4.712;2023-02-28T07:08:08;15.73;;;12.50;;
8777;SDS011;4425;50.872;4.712;2023-02-28T07:10:41;18.13;;;12.40;;
8777;SDS011;4425;50.872;4.712;2023-02-28T07:13:09;17.13;;;12.15;;
8777;SDS011;4425;50.872;4.712;2023-02-28T07:15:52;16.53;;;12.40;;
8777;SDS011;4425;50.872;4.712;2023-02-28T07:18:20;14.80;;;12.35;;
8777;SDS011;4425;50.872;4.712;2023-02-28T07:25:55;16.25;;;12.45;;
8777;SDS011;4425;50.872;4.712;2023-02-28T07:28:24;15.30;;;12.35;;
8777;SDS011;4425;50.872;4.712;2023-02-28T07:30:52;16.90;;;12.43;;
8777;SDS011;4425;50.872;4.712;2023-02-28T07:33:31;16.27;;;12.57;;
8777;SDS011;4425;50.872;4.712;2023-02-28T07:36:13;14.40;;;12.23;;
8777;SDS011;4425;50.872;4.712;2023-02-28T07:38:45;13.57;;;11.30;;
8777;SDS011;4425;50.872;4.712;2023-02-28T07:41:25;12.40;;;10.57;;
8777;SDS011;4425;50.872;4.712;2023-02-28T07:43:55;17.60;;;11.30;;
8777;SDS011;4425;50.872;4.712;2023-02-28T07:46:33;19.05;;;10.57;;
8777;SDS011;4425;50.872;4.712;2023-02-28T07:49:02;19.42;;;11.05;;
8777;SDS011;4425;50.872;4.712;2023-02-28T07:51:34;23.42;;;10.98;;
8777;SDS011;4425;50.872;4.712;2023-02-28T07:54:17;13.87;;;9.73;;
8777;SDS011;4425;50.872;4.712;2023-02-28T07:59:37;13.68;;;8.88;;
8777;SDS011;4425;50.872;4.712;2023-02-28T08:02:19;14.13;;;7.93;;
8777;SDS011;4425;50.872;4.712;2023-02-28T08:07:30;8.82;;;7.20;;
8777;SDS011;4425;50.872;4.712;2023-02-28T08:09:58;9.95;;;7.20;;
8777;SDS011;4425;50.872;4.712;2023-02-28T08:12:45;9.27;;;7.10;;
8777;SDS011;4425;50.872;4.712;2023-02-28T08:18:02;10.93;;;7.50;;
8777;SDS011;4425;50.872;4.712;2023-02-28T08:20:31;9.25;;;6.38;;
8777;SDS011;4425;50.872;4.712;2023-02-28T08:23:13;7.38;;;6.43;;
8777;SDS011;4425;50.872;4.712;2023-02-28T08:25:52;8.95;;;6.60;;
8777;SDS011;4425;50.872;4.712;2023-02-28T08:31:53;6.80;;;6.10;;
8777;SDS011;4425;50.872;4.712;2023-02-28T08:34:58;9.85;;;6.50;;
8777;SDS011;4425;50.872;4.712;2023-02-28T08:44:10;6.80;;;6.10;;
8777;SDS011;4425;50.872;4.712;2023-02-28T08:49:40;10.80;;;6.90;;
8777;SDS011;4425;50.872;4.712;2023-02-28T08:52:13;13.25;;;6.72;;
8777;SDS011;4425;50.872;4.712;2023-02-28T08:55:12;10.32;;;6.50;;
8777;SDS011;4425;50.872;4.712;2023-02-28T08:57:40;6.47;;;5.72;;
8777;SDS011;4425;50.872;4.712;2023-02-28T09:00:11;7.53;;;6.15;;
8777;SDS011;4425;50.872;4.712;2023-02-28T09:03:01;9.13;;;6.15;;
8777;SDS011;4425;50.872;4.712;2023-02-28T09:05:51;7.13;;;5.60;;
8777;SDS011;4425;50.872;4.712;2023-02-28T09:08:36;5.53;;;5.03;;
8777;SDS011;4425;50.872;4.712;2023-02-28T09:11:12;15.15;;;6.32;;
8777;SDS011;4425;50.872;4.712;2023-02-28T09:13:50;8.13;;;5.50;;
8777;SDS011;4425;50.872;4.712;2023-02-28T09:16:41;7.20;;;5.20;;
8777;SDS011;4425;50.872;4.712;2023-02-28T09:22:09;6.97;;;4.90;;
8777;SDS011;4425;50.872;4.712;2023-02-28T09:24:45;8.80;;;5.07;;
8777;SDS011;4425;50.872;4.712;2023-02-28T09:27:31;5.22;;;4.60;;
8777;SDS011;4425;50.872;4.712;2023-02-28T09:30:01;6.38;;;4.30;;
8777;SDS011;4425;50.872;4.712;2023-02-28T09:32:36;5.13;;;4.45;;
8777;SDS011;4425;50.872;4.712;2023-02-28T09:35:23;6.80;;;4.47;;
8777;SDS011;4425;50.872;4.712;2023-02-28T09:37:58;6.15;;;4.43;;
8777;SDS011;4425;50.872;4.712;2023-02-28T09:40:36;4.63;;;3.85;;
8777;SDS011;4425;50.872;4.712;2023-02-28T09:43:27;4.68;;;3.90;;
8777;SDS011;4425;50.872;4.712;2023-02-28T09:46:06;4.97;;;3.85;;
8777;SDS011;4425;50.872;4.712;2023-02-28T09:48:44;4.28;;;3.88;;
8777;SDS011;4425;50.872;4.712;2023-02-28T09:51:21;4.25;;;3.83;;
8777;SDS011;4425;50.872;4.712;2023-02-28T09:54:20;4.05;;;3.65;;
8777;SDS011;4425;50.872;4.712;2023-02-28T09:56:53;3.97;;;3.60;;
8777;SDS011;4425;50.872;4.712;2023-02-28T09:59:44;6.70;;;4.05;;
8777;SDS011;4425;50.872;4.712;2023-02-28T10:05:27;13.50;;;4.07;;
8777;SDS011;4425;50.872;4.712;2023-02-28T10:08:06;3.90;;;3.30;;
8777;SDS011;4425;50.872;4.712;2023-02-28T10:10:40;3.70;;;3.20;;
8777;SDS011;4425;50.872;4.712;2023-02-28T10:16:10;6.63;;;3.20;;
8777;SDS011;4425;50.872;4.712;2023-02-28T10:18:49;5.65;;;3.20;;
8777;SDS011;4425;50.872;4.712;2023-02-28T10:21:34;3.50;;;3.20;;
8777;SDS011;4425;50.872;4.712;2023-02-28T10:24:11;4.70;;;3.40;;
8777;SDS011;4425;50.872;4.712;2023-02-28T10:27:06;4.00;;;3.60;;
8777;SDS011;4425;50.872;4.712;2023-02-28T10:29:45;4.78;;;3.40;;
8777;SDS011;4425;50.872;4.712;2023-02-28T10:32:17;3.70;;;3.38;;
8777;SDS011;4425;50.872;4.712;2023-02-28T10:34:58;4.28;;;3.28;;
8777;SDS011;4425;50.872;4.712;2023-02-28T10:37:33;3.60;;;3.30;;
8777;SDS011;4425;50.872;4.712;2023-02-28T10:42:58;6.20;;;3.13;;
8777;SDS011;4425;50.872;4.712;2023-02-28T10:45:51;2.97;;;2.73;;
8777;SDS011;4425;50.872;4.712;2023-02-28T10:48:39;3.03;;;2.67;;
8777;SDS011;4425;50.872;4.712;2023-02-28T10:53:45;3.28;;;2.95;;
8777;SDS011;4425;50.872;4.712;2023-02-28T10:56:19;3.40;;;3.10;;
8777;SDS011;4425;50.872;4.712;2023-02-28T10:58:54;3.17;;;2.90;;
8777;SDS011;4425;50.872;4.712;2023-02-28T11:01:34;5.47;;;3.30;;
8777;SDS011;4425;50.872;4.712;2023-02-28T11:04:17;3.30;;;3.10;;
8777;SDS011;4425;50.872;4.712;2023-02-28T11:06:46;3.30;;;3.10;;
8777;SDS011;4425;50.872;4.712;2023-02-28T11:09:25;3.88;;;3.58;;
8777;SDS011;4425;50.872;4.712;2023-02-28T11:11:57;3.88;;;3.30;;
8777;SDS011;4425;50.872;4.712;2023-02-28T11:14:29;3.47;;;3.17;;
8777;SDS011;4425;50.872;4.712;2023-02-28T11:17:00;3.83;;;2.97;;
8777;SDS011;4425;50.872;4.712;2023-02-28T11:19:47;3.03;;;2.83;;
8777;SDS011;4425;50.872;4.712;2023-02-28T11:22:20;3.92;;;3.03;;
8777;SDS011;4425;50.872;4.712;2023-02-28T11:24:56;3.00;;;2.80;;
8777;SDS011;4425;50.872;4.712;2023-02-28T11:27:42;2.75;;;2.55;;
8777;SDS011;4425;50.872;4.712;2023-02-28T11:33:42;3.40;;;2.80;;
8777;SDS011;4425;50.872;4.712;2023-02-28T11:36:29;7.78;;;2.92;;
8777;SDS011;4425;50.872;4.712;2023-02-28T11:39:10;2.60;;;2.50;;
8777;SDS011;4425;50.872;4.712;2023-02-28T11:41:56;3.90;;;2.80;;
8777;SDS011;4425;50.872;4.712;2023-02-28T11:50:31;2.80;;;2.60;;
8777;SDS011;4425;50.872;4.712;2023-02-28T11:53:35;2.70;;;2.60;;
8777;SDS011;4425;50.872;4.712;2023-02-28T11:56:23;2.90;;;2.70;;
8777;SDS011;4425;50.872;4.712;2023-02-28T11:59:04;4.07;;;2.97;;
8777;SDS011;4425;50.872;4.712;2023-02-28T12:01:53;4.93;;;3.08;;
8777;SDS011;4425;50.872;4.712;2023-02-28T12:04:36;3.10;;;2.80;;
8777;SDS011;4425;50.872;4.712;2023-02-28T12:07:20;3.70;;;3.40;;
8777;SDS011;4425;50.872;4.712;2023-02-28T12:09:59;2.92;;;2.72;;
8777;SDS011;4425;50.872;4.712;2023-02-28T12:13:00;5.32;;;3.08;;
8777;SDS011;4425;50.872;4.712;2023-02-28T12:15:41;4.22;;;2.90;;
8777;SDS011;4425;50.872;4.712;2023-02-28T12:18:25;2.80;;;2.60;;
8777;SDS011;4425;50.872;4.712;2023-02-28T12:21:17;3.20;;;2.80;;
8777;SDS011;4425;50.872;4.712;2023-02-28T12:24:23;3.47;;;2.90;;
8777;SDS011;4425;50.872;4.712;2023-02-28T12:27:19;3.08;;;2.75;;
8777;SDS011;4425;50.872;4.712;2023-02-28T12:30:13;3.03;;;2.63;;
8777;SDS011;4425;50.872;4.712;2023-02-28T12:32:47;4.82;;;2.90;;
8777;SDS011;4425;50.872;4.712;2023-02-28T12:35:21;3.72;;;2.80;;
8777;SDS011;4425;50.872;4.712;2023-02-28T12:37:58;3.97;;;3.00;;
8777;SDS011;4425;50.872;4.712;2023-02-28T12:40:40;4.40;;;2.90;;
8777;SDS011;4425;50.872;4.712;2023-02-28T12:43:15;3.92;;;2.95;;
8777;SDS011;4425;50.872;4.712;2023-02-28T12:46:06;9.25;;;3.17;;
8777;SDS011;4425;50.872;4.712;2023-02-28T12:48:46;3.63;;;3.30;;
8777;SDS011;4425;50.872;4.712;2023-02-28T12:51:30;3.50;;;3.20;;
8777;SDS011;4425;50.872;4.712;2023-02-28T12:54:10;3.33;;;3.10;;
8777;SDS011;4425;50.872;4.712;2023-02-28T12:56:49;7.03;;;4.75;;
8777;SDS011;4425;50.872;4.712;2023-02-28T12:59:27;3.75;;;3.10;;
8777;SDS011;4425;50.872;4.712;2023-02-28T13:02:15;3.33;;;2.97;;
8777;SDS011;4425;50.872;4.712;2023-02-28T13:07:59;3.17;;;2.85;;
8777;SDS011;4425;50.872;4.712;2023-02-28T13:10:39;3.38;;;3.10;;
8777;SDS011;4425;50.872;4.712;2023-02-28T13:13:13;3.25;;;3.00;;
8777;SDS011;4425;50.872;4.712;2023-02-28T13:15:56;3.28;;;3.05;;
8777;SDS011;4425;50.872;4.712;2023-02-28T13:18:28;5.00;;;2.90;;
8777;SDS011;4425;50.872;4.712;2023-02-28T13:21:00;3.20;;;2.72;;
8777;SDS011;4425;50.872;4.712;2023-02-28T13:23:38;3.17;;;2.88;;
8777;SDS011;4425;50.872;4.712;2023-02-28T13:29:37;3.03;;;2.72;;
8777;SDS011;4425;50.872;4.712;2023-02-28T13:44:15;3.53;;;2.88;;
8777;SDS011;4425;50.872;4.712;2023-02-28T13:49:52;6.38;;;2.83;;
8777;SDS011;4425;50.872;4.712;2023-02-28T13:52:25;3.20;;;2.85;;
8777;SDS011;4425;50.872;4.712;2023-02-28T13:55:03;3.53;;;3.00;;
8777;SDS011;4425;50.872;4.712;2023-02-28T13:57:57;3.17;;;2.97;;
8777;SDS011;4425;50.872;4.712;2023-02-28T14:00:37;3.45;;;2.72;;
8777;SDS011;4425;50.872;4.712;2023-02-28T14:03:22;4.57;;;2.97;;
8777;SDS011;4425;50.872;4.712;2023-02-28T14:06:16;3.20;;;3.00;;
8777;SDS011;4425;50.872;4.712;2023-02-28T14:08:51;3.78;;;3.00;;
8777;SDS011;4425;50.872;4.712;2023-02-28T14:11:25;4.75;;;3.10;;
8777;SDS011;4425;50.872;4.712;2023-02-28T14:13:59;3.28;;;2.75;;
8777;SDS011;4425;50.872;4.712;2023-02-28T14:16:35;5.30;;;3.30;;
8777;SDS011;4425;50.872;4.712;2023-02-28T14:19:15;8.05;;;3.50;;
8777;SDS011;4425;50.872;4.712;2023-02-28T14:21:58;34.35;;;4.97;;
8777;SDS011;4425;50.872;4.712;2023-02-28T14:24:47;4.93;;;3.17;;
8777;SDS011;4425;50.872;4.712;2023-02-28T14:27:39;3.57;;;3.27;;
8777;SDS011;4425;50.872;4.712;2023-02-28T14:36:30;3.60;;;3.30;;
8777;SDS011;4425;50.872;4.712;2023-02-28T14:39:04;3.55;;;3.25;;
8777;SDS011;4425;50.872;4.712;2023-02-28T14:41:36;4.20;;;3.63;;
8777;SDS011;4425;50.872;4.712;2023-02-28T14:44:13;5.80;;;3.92;;
8777;SDS011;4425;50.872;4.712;2023-02-28T14:49:34;6.93;;;4.40;;
8777;SDS011;4425;50.872;4.712;2023-02-28T14:52:12;3.90;;;3.60;;
8777;SDS011;4425;50.872;4.712;2023-02-28T14:54:43;3.75;;;3.47;;
8777;SDS011;4425;50.872;4.712;2023-02-28T14:57:26;3.65;;;3.40;;
8777;SDS011;4425;50.872;4.712;2023-02-28T15:00:05;3.60;;;3.30;;
8777;SDS011;4425;50.872;4.712;2023-02-28T15:02:40;3.85;;;3.50;;
8777;SDS011;4425;50.872;4.712;2023-02-28T15:05:25;3.50;;;3.30;;
8777;SDS011;4425;50.872;4.712;2023-02-28T15:08:10;4.93;;;3.65;;
8777;SDS011;4425;50.872;4.712;2023-02-28T15:10:43;3.80;;;3.30;;
8777;SDS011;4425;50.872;4.712;2023-02-28T15:13:40;5.63;;;3.35;;
8777;SDS011;4425;50.872;4.712;2023-02-28T15:16:13;3.58;;;3.25;;
8777;SDS011;4425;50.872;4.712;2023-02-28T15:18:47;3.38;;;3.10;;
8777;SDS011;4425;50.872;4.712;2023-02-28T15:21:20;3.50;;;3.28;;
8777;SDS011;4425;50.872;4.712;2023-02-28T15:23:53;4.18;;;3.40;;
8777;SDS011;4425;50.872;4.712;2023-02-28T15:26:25;3.67;;;3.38;;
8777;SDS011;4425;50.872;4.712;2023-02-28T15:29:01;3.53;;;3.22;;
8777;SDS011;4425;50.872;4.712;2023-02-28T15:31:31;4.03;;;3.53;;
8777;SDS011;4425;50.872;4.712;2023-02-28T15:34:03;4.03;;;3.72;;
8777;SDS011;4425;50.872;4.712;2023-02-28T15:36:34;3.83;;;3.42;;
8777;SDS011;4425;50.872;4.712;2023-02-28T15:39:18;3.95;;;3.47;;
8777;SDS011;4425;50.872;4.712;2023-02-28T15:41:48;3.80;;;3.50;;
8777;SDS011;4425;50.872;4.712;2023-02-28T15:44:29;4.20;;;3.80;;
8777;SDS011;4425;50.872;4.712;2023-02-28T15:47:02;5.20;;;3.60;;
8777;SDS011;4425;50.872;4.712;2023-02-28T15:49:34;4.20;;;3.80;;
8777;SDS011;4425;50.872;4.712;2023-02-28T15:52:09;4.05;;;3.63;;
8777;SDS011;4425;50.872;4.712;2023-02-28T15:54:48;4.18;;;3.60;;
8777;SDS011;4425;50.872;4.712;2023-02-28T15:57:18;3.88;;;3.58;;
8777;SDS011;4425;50.872;4.712;2023-02-28T15:59:49;4.40;;;3.40;;
8777;SDS011;4425;50.872;4.712;2023-02-28T16:02:21;5.25;;;3.65;;
8777;SDS011;4425;50.872;4.712;2023-02-28T16:04:57;4.57;;;3.88;;
8777;SDS011;4425;50.872;4.712;2023-02-28T16:07:27;3.83;;;3.53;;
8777;SDS011;4425;50.872;4.712;2023-02-28T16:10:05;4.05;;;3.65;;
8777;SDS011;4425;50.872;4.712;2023-02-28T16:12:36;4.00;;;3.65;;
8777;SDS011;4425;50.872;4.712;2023-02-28T16:15:17;3.38;;;3.17;;
8777;SDS011;4425;50.872;4.712;2023-02-28T16:17:48;3.78;;;3.47;;
8777;SDS011;4425;50.872;4.712;2023-02-28T16:20:35;3.72;;;3.42;;
8777;SDS011;4425;50.872;4.712;2023-02-28T16:23:04;3.63;;;3.40;;
8777;SDS011;4425;50.872;4.712;2023-02-28T16:25:38;4.78;;;3.20;;
8777;SDS011;4425;50.872;4.712;2023-02-28T16:28:12;3.77;;;3.33;;
8777;SDS011;4425;50.872;4.712;2023-02-28T16:30:59;3.42;;;3.22;;
8777;SDS011;4425;50.872;4.712;2023-02-28T16:33:30;3.60;;;3.30;;
8777;SDS011;4425;50.872;4.712;2023-02-28T16:38:31;3.67;;;3.38;;
8777;SDS011;4425;50.872;4.712;2023-02-28T16:41:01;4.50;;;3.38;;
8777;SDS011;4425;50.872;4.712;2023-02-28T16:43:30;3.97;;;3.50;;
8777;SDS011;4425;50.872;4.712;2023-02-28T16:46:02;4.30;;;3.65;;
8777;SDS011;4425;50.872;4.712;2023-02-28T16:48:30;3.60;;;3.30;;
8777;SDS011;4425;50.872;4.712;2023-02-28T16:50:58;7.10;;;3.90;;
8777;SDS011;4425;50.872;4.712;2023-02-28T16:53:32;4.80;;;3.53;;
8777;SDS011;4425;50.872;4.712;2023-02-28T16:56:09;4.10;;;3.55;;
8777;SDS011;4425;50.872;4.712;2023-02-28T16:58:46;4.32;;;3.42;;
8777;SDS011;4425;50.872;4.712;2023-02-28T17:01:15;4.25;;;3.63;;
8777;SDS011;4425;50.872;4.712;2023-02-28T17:03:46;4.10;;;3.60;;
8777;SDS011;4425;50.872;4.712;2023-02-28T17:06:21;4.68;;;3.83;;
8777;SDS011;4425;50.872;4.712;2023-02-28T17:08:54;4.30;;;3.70;;
8777;SDS011;4425;50.872;4.712;2023-02-28T17:11:26;4.18;;;3.75;;
8777;SDS011;4425;50.872;4.712;2023-02-28T17:13:55;4.00;;;3.50;;
8777;SDS011;4425;50.872;4.712;2023-02-28T17:16:25;4.15;;;3.80;;
8777;SDS011;4425;50.872;4.712;2023-02-28T17:18:58;4.10;;;3.70;;
8777;SDS011;4425;50.872;4.712;2023-02-28T17:21:28;4.82;;;3.72;;
8777;SDS011;4425;50.872;4.712;2023-02-28T17:24:00;4.57;;;3.70;;
8777;SDS011;4425;50.872;4.712;2023-02-28T17:26:40;4.40;;;4.00;;
8777;SDS011;4425;50.872;4.712;2023-02-28T17:29:11;4.63;;;4.00;;
8777;SDS011;4425;50.872;4.712;2023-02-28T17:31:49;4.50;;;4.10;;
8777;SDS011;4425;50.872;4.712;2023-02-28T17:34:23;5.47;;;4.10;;
8777;SDS011;4425;50.872;4.712;2023-02-28T17:36:50;6.90;;;4.55;;
8777;SDS011;4425;50.872;4.712;2023-02-28T17:39:19;5.20;;;4.60;;
8777;SDS011;4425;50.872;4.712;2023-02-28T17:41:51;6.63;;;4.47;;
8777;SDS011;4425;50.872;4.712;2023-02-28T17:44:18;5.67;;;5.07;;
8777;SDS011;4425;50.872;4.712;2023-02-28T17:46:47;5.22;;;4.72;;
8777;SDS011;4425;50.872;4.712;2023-02-28T17:49:18;6.20;;;5.20;;
8777;SDS011;4425;50.872;4.712;2023-02-28T17:51:48;5.87;;;4.70;;
8777;SDS011;4425;50.872;4.712;2023-02-28T17:54:15;6.97;;;4.72;;
8777;SDS011;4425;50.872;4.712;2023-02-28T17:56:45;8.45;;;5.05;;
8777;SDS011;4425;50.872;4.712;2023-02-28T17:59:30;5.85;;;5.00;;